sensor_id;sensor_type;location;lat;lon;timestamp;P1;durP1;ratioP1;P2;durP2;ratioP2
43337;SDS011;28933;52.492;13.434;2022-07-11T00:01:30;6.15;;;2.28;;
43337;SDS011;28933;52.492;13.434;2022-07-11T00:03:56;6.55;;;1.85;;
43337;SDS011;28933;52.492;13.434;2022-07-11T00:06:21;3.47;;;1.55;;
43337;SDS011;28933;52.492;13.434;2022-07-11T00:08:47;3.42;;;1.67;;
43337;SDS011;28933;52.492;13.434;2022-07-11T00:11:12;5.57;;;1.60;;
43337;SDS011;28933;52.492;13.434;2022-07-11T00:13:38;6.28;;;2.72;;
43337;SDS011;28933;52.492;13.434;2022-07-11T00:16:04;5.68;;;2.15;;
43337;SDS011;28933;52.492;13.434;2022-07-11T00:18:29;4.20;;;1.80;;
43337;SDS011;28933;52.492;13.434;2022-07-11T00:20:55;6.95;;;1.98;;
43337;SDS011;28933;52.492;13.434;2022-07-11T00:23:21;8.48;;;1.98;;
43337;SDS011;28933;52.492;13.434;2022-07-11T00:25:46;3.30;;;1.48;;
43337;SDS011;28933;52.492;13.434;2022-07-11T00:28:12;6.07;;;1.70;;
43337;SDS011;28933;52.492;13.434;2022-07-11T00:30:38;4.93;;;1.83;;
43337;SDS011;28933;52.492;13.434;2022-07-11T00:33:03;4.50;;;1.83;;
43337;SDS011;28933;52.492;13.434;2022-07-11T00:35:29;6.50;;;1.67;;
43337;SDS011;28933;52.492;13.434;2022-07-11T00:37:55;6.70;;;2.55;;
43337;SDS011;28933;52.492;13.434;2022-07-11T00:40:20;10.45;;;2.83;;
43337;SDS011;28933;52.492;13.434;2022-07-11T00:42:46;11.60;;;2.30;;
43337;SDS011;28933;52.492;13.434;2022-07-11T00:45:11;5.30;;;1.80;;
43337;SDS011;28933;52.492;13.434;2022-07-11T00:47:37;4.30;;;1.70;;
43337;SDS011;28933;52.492;13.434;2022-07-11T00:50:02;9.07;;;2.53;;
43337;SDS011;28933;52.492;13.434;2022-07-11T00:52:29;10.07;;;2.75;;
43337;SDS011;28933;52.492;13.434;2022-07-11T00:54:55;5.82;;;1.77;;
43337;SDS011;28933;52.492;13.434;2022-07-11T00:57:22;5.28;;;1.80;;
43337;SDS011;28933;52.492;13.434;2022-07-11T00:59:48;5.30;;;1.67;;
43337;SDS011;28933;52.492;13.434;2022-07-11T01:02:14;5.82;;;1.88;;
43337;SDS011;28933;52.492;13.434;2022-07-11T01:04:39;4.70;;;1.70;;
43337;SDS011;28933;52.492;13.434;2022-07-11T01:07:05;8.45;;;2.03;;
43337;SDS011;28933;52.492;13.434;2022-07-11T01:09:31;5.78;;;1.73;;
43337;SDS011;28933;52.492;13.434;2022-07-11T01:11:57;5.85;;;1.48;;
43337;SDS011;28933;52.492;13.434;2022-07-11T01:14:23;5.70;;;1.90;;
43337;SDS011;28933;52.492;13.434;2022-07-11T01:16:49;3.53;;;1.40;;
43337;SDS011;28933;52.492;13.434;2022-07-11T01:19:16;7.35;;;1.90;;
43337;SDS011;28933;52.492;13.434;2022-07-11T01:21:43;4.38;;;2.03;;
43337;SDS011;28933;52.492;13.434;2022-07-11T01:24:10;4.80;;;1.60;;
43337;SDS011;28933;52.492;13.434;2022-07-11T01:26:36;5.85;;;1.92;;
43337;SDS011;28933;52.492;13.434;2022-07-11T01:29:09;9.15;;;1.90;;
43337;SDS011;28933;52.492;13.434;2022-07-11T01:31:42;5.32;;;2.25;;
43337;SDS011;28933;52.492;13.434;2022-07-11T01:34:08;4.50;;;1.75;;
43337;SDS011;28933;52.492;13.434;2022-07-11T01:36:34;6.28;;;1.67;;
43337;SDS011;28933;52.492;13.434;2022-07-11T01:39:00;4.32;;;1.83;;
43337;SDS011;28933;52.492;13.434;2022-07-11T01:41:26;6.82;;;2.50;;
43337;SDS011;28933;52.492;13.434;2022-07-11T01:43:52;7.35;;;1.90;;
43337;SDS011;28933;52.492;13.434;2022-07-11T01:46:18;4.15;;;1.73;;
43337;SDS011;28933;52.492;13.434;2022-07-11T01:48:44;5.40;;;1.70;;
43337;SDS011;28933;52.492;13.434;2022-07-11T01:51:10;3.22;;;1.42;;
43337;SDS011;28933;52.492;13.434;2022-07-11T01:53:36;6.30;;;2.63;;
43337;SDS011;28933;52.492;13.434;2022-07-11T01:56:02;4.38;;;1.83;;
43337;SDS011;28933;52.492;13.434;2022-07-11T01:58:27;9.85;;;2.05;;
43337;SDS011;28933;52.492;13.434;2022-07-11T02:00:55;6.95;;;1.95;;
43337;SDS011;28933;52.492;13.434;2022-07-11T02:03:21;7.97;;;2.40;;
43337;SDS011;28933;52.492;13.434;2022-07-11T02:05:47;4.78;;;1.83;;
43337;SDS011;28933;52.492;13.434;2022-07-11T02:08:12;2.60;;;1.42;;
43337;SDS011;28933;52.492;13.434;2022-07-11T02:10:42;8.05;;;2.25;;
43337;SDS011;28933;52.492;13.434;2022-07-11T02:13:13;3.47;;;2.00;;
43337;SDS011;28933;52.492;13.434;2022-07-11T02:15:40;7.07;;;1.70;;
43337;SDS011;28933;52.492;13.434;2022-07-11T02:18:07;7.88;;;1.98;;
43337;SDS011;28933;52.492;13.434;2022-07-11T02:20:34;7.75;;;2.08;;
43337;SDS011;28933;52.492;13.434;2022-07-11T02:23:00;4.63;;;1.60;;
43337;SDS011;28933;52.492;13.434;2022-07-11T02:25:26;9.13;;;1.95;;
43337;SDS011;28933;52.492;13.434;2022-07-11T02:27:52;8.18;;;2.15;;
43337;SDS011;28933;52.492;13.434;2022-07-11T02:30:18;6.20;;;2.20;;
43337;SDS011;28933;52.492;13.434;2022-07-11T02:32:44;6.90;;;1.90;;
43337;SDS011;28933;52.492;13.434;2022-07-11T02:35:09;8.85;;;1.95;;
43337;SDS011;28933;52.492;13.434;2022-07-11T02:37:35;6.22;;;1.85;;
43337;SDS011;28933;52.492;13.434;2022-07-11T02:40:00;7.43;;;2.25;;
43337;SDS011;28933;52.492;13.434;2022-07-11T02:42:26;4.57;;;2.40;;
43337;SDS011;28933;52.492;13.434;2022-07-11T02:44:52;7.60;;;1.85;;
43337;SDS011;28933;52.492;13.434;2022-07-11T02:47:17;4.22;;;1.45;;
43337;SDS011;28933;52.492;13.434;2022-07-11T02:49:43;7.28;;;1.85;;
43337;SDS011;28933;52.492;13.434;2022-07-11T02:52:08;6.20;;;2.40;;
43337;SDS011;28933;52.492;13.434;2022-07-11T02:54:35;4.97;;;1.98;;
43337;SDS011;28933;52.492;13.434;2022-07-11T02:57:01;6.78;;;1.67;;
43337;SDS011;28933;52.492;13.434;2022-07-11T02:59:27;5.43;;;1.75;;
43337;SDS011;28933;52.492;13.434;2022-07-11T03:01:52;10.38;;;3.08;;
43337;SDS011;28933;52.492;13.434;2022-07-11T03:04:19;5.88;;;2.30;;
43337;SDS011;28933;52.492;13.434;2022-07-11T03:06:44;6.82;;;2.25;;
43337;SDS011;28933;52.492;13.434;2022-07-11T03:09:10;6.22;;;2.25;;
43337;SDS011;28933;52.492;13.434;2022-07-11T03:11:35;6.32;;;1.98;;
43337;SDS011;28933;52.492;13.434;2022-07-11T03:14:01;6.38;;;1.90;;
43337;SDS011;28933;52.492;13.434;2022-07-11T03:16:27;8.60;;;2.45;;
43337;SDS011;28933;52.492;13.434;2022-07-11T03:18:53;6.85;;;1.90;;
43337;SDS011;28933;52.492;13.434;2022-07-11T03:21:19;4.55;;;1.90;;
43337;SDS011;28933;52.492;13.434;2022-07-11T03:23:44;5.28;;;1.60;;
43337;SDS011;28933;52.492;13.434;2022-07-11T03:26:10;6.00;;;2.03;;
43337;SDS011;28933;52.492;13.434;2022-07-11T03:28:36;6.80;;;2.33;;
43337;SDS011;28933;52.492;13.434;2022-07-11T03:31:01;7.97;;;2.15;;
43337;SDS011;28933;52.492;13.434;2022-07-11T03:33:27;6.30;;;2.08;;
43337;SDS011;28933;52.492;13.434;2022-07-11T03:35:53;4.32;;;2.03;;
43337;SDS011;28933;52.492;13.434;2022-07-11T03:38:19;7.45;;;2.53;;
43337;SDS011;28933;52.492;13.434;2022-07-11T03:40:45;4.28;;;1.88;;
43337;SDS011;28933;52.492;13.434;2022-07-11T03:43:12;5.60;;;1.83;;
43337;SDS011;28933;52.492;13.434;2022-07-11T03:45:37;7.53;;;2.13;;
43337;SDS011;28933;52.492;13.434;2022-07-11T03:48:03;6.82;;;1.90;;
43337;SDS011;28933;52.492;13.434;2022-07-11T03:50:30;7.65;;;2.67;;
43337;SDS011;28933;52.492;13.434;2022-07-11T03:52:56;5.70;;;2.50;;
43337;SDS011;28933;52.492;13.434;2022-07-11T03:55:21;6.78;;;2.03;;
43337;SDS011;28933;52.492;13.434;2022-07-11T03:57:48;8.40;;;2.63;;
43337;SDS011;28933;52.492;13.434;2022-07-11T04:00:13;9.13;;;2.60;;
43337;SDS011;28933;52.492;13.434;2022-07-11T04:02:39;8.65;;;2.78;;
43337;SDS011;28933;52.492;13.434;2022-07-11T04:05:05;5.43;;;2.25;;
43337;SDS011;28933;52.492;13.434;2022-07-11T04:07:31;9.23;;;2.00;;
43337;SDS011;28933;52.492;13.434;2022-07-11T04:09:57;5.75;;;2.10;;
43337;SDS011;28933;52.492;13.434;2022-07-11T04:12:23;6.28;;;1.83;;
43337;SDS011;28933;52.492;13.434;2022-07-11T04:14:48;6.68;;;2.58;;
43337;SDS011;28933;52.492;13.434;2022-07-11T04:17:14;8.25;;;2.47;;
43337;SDS011;28933;52.492;13.434;2022-07-11T04:19:40;8.35;;;2.50;;
43337;SDS011;28933;52.492;13.434;2022-07-11T04:22:07;6.28;;;1.90;;
43337;SDS011;28933;52.492;13.434;2022-07-11T04:24:33;5.28;;;2.20;;
43337;SDS011;28933;52.492;13.434;2022-07-11T04:27:17;8.50;;;2.83;;
43337;SDS011;28933;52.492;13.434;2022-07-11T04:29:43;7.25;;;2.20;;
43337;SDS011;28933;52.492;13.434;2022-07-11T04:32:08;4.47;;;1.90;;
43337;SDS011;28933;52.492;13.434;2022-07-11T04:34:34;5.40;;;2.38;;
43337;SDS011;28933;52.492;13.434;2022-07-11T04:36:59;4.75;;;1.90;;
43337;SDS011;28933;52.492;13.434;2022-07-11T04:39:25;4.60;;;1.92;;
43337;SDS011;28933;52.492;13.434;2022-07-11T04:41:51;5.80;;;2.20;;
43337;SDS011;28933;52.492;13.434;2022-07-11T04:44:16;5.40;;;2.13;;
43337;SDS011;28933;52.492;13.434;2022-07-11T04:46:42;5.15;;;2.22;;
43337;SDS011;28933;52.492;13.434;2022-07-11T04:49:07;5.07;;;2.15;;
43337;SDS011;28933;52.492;13.434;2022-07-11T04:51:33;5.30;;;2.28;;
43337;SDS011;28933;52.492;13.434;2022-07-11T04:53:59;4.13;;;2.10;;
43337;SDS011;28933;52.492;13.434;2022-07-11T04:56:25;12.48;;;2.17;;
43337;SDS011;28933;52.492;13.434;2022-07-11T04:58:51;7.82;;;1.83;;
43337;SDS011;28933;52.492;13.434;2022-07-11T05:01:16;6.00;;;2.30;;
43337;SDS011;28933;52.492;13.434;2022-07-11T05:03:42;7.07;;;2.30;;
43337;SDS011;28933;52.492;13.434;2022-07-11T05:06:07;7.65;;;2.15;;
43337;SDS011;28933;52.492;13.434;2022-07-11T05:08:33;4.97;;;1.58;;
43337;SDS011;28933;52.492;13.434;2022-07-11T05:11:01;12.23;;;2.88;;
43337;SDS011;28933;52.492;13.434;2022-07-11T05:13:28;5.43;;;1.90;;
43337;SDS011;28933;52.492;13.434;2022-07-11T05:15:54;3.17;;;1.88;;
43337;SDS011;28933;52.492;13.434;2022-07-11T05:18:19;6.28;;;1.95;;
43337;SDS011;28933;52.492;13.434;2022-07-11T05:20:45;5.07;;;2.20;;
43337;SDS011;28933;52.492;13.434;2022-07-11T05:23:10;5.03;;;1.88;;
43337;SDS011;28933;52.492;13.434;2022-07-11T05:25:36;6.57;;;2.05;;
43337;SDS011;28933;52.492;13.434;2022-07-11T05:28:01;5.80;;;2.40;;
43337;SDS011;28933;52.492;13.434;2022-07-11T05:30:27;5.40;;;1.95;;
43337;SDS011;28933;52.492;13.434;2022-07-11T05:32:53;6.28;;;2.80;;
43337;SDS011;28933;52.492;13.434;2022-07-11T05:35:18;6.68;;;2.53;;
43337;SDS011;28933;52.492;13.434;2022-07-11T05:37:44;6.25;;;1.98;;
43337;SDS011;28933;52.492;13.434;2022-07-11T05:40:09;6.00;;;1.75;;
43337;SDS011;28933;52.492;13.434;2022-07-11T05:42:35;7.38;;;2.35;;
43337;SDS011;28933;52.492;13.434;2022-07-11T05:45:01;6.07;;;2.10;;
43337;SDS011;28933;52.492;13.434;2022-07-11T05:47:26;7.88;;;2.03;;
43337;SDS011;28933;52.492;13.434;2022-07-11T05:50:10;6.75;;;2.05;;
43337;SDS011;28933;52.492;13.434;2022-07-11T05:52:36;4.07;;;1.65;;
43337;SDS011;28933;52.492;13.434;2022-07-11T05:55:01;5.80;;;2.25;;
43337;SDS011;28933;52.492;13.434;2022-07-11T05:57:27;8.05;;;2.15;;
43337;SDS011;28933;52.492;13.434;2022-07-11T05:59:52;8.57;;;3.15;;
43337;SDS011;28933;52.492;13.434;2022-07-11T06:02:18;6.53;;;2.00;;
43337;SDS011;28933;52.492;13.434;2022-07-11T06:04:43;5.88;;;2.25;;
43337;SDS011;28933;52.492;13.434;2022-07-11T06:07:09;9.95;;;2.47;;
43337;SDS011;28933;52.492;13.434;2022-07-11T06:09:35;5.82;;;2.20;;
43337;SDS011;28933;52.492;13.434;2022-07-11T06:12:01;5.88;;;2.22;;
43337;SDS011;28933;52.492;13.434;2022-07-11T06:14:27;7.47;;;2.20;;
43337;SDS011;28933;52.492;13.434;2022-07-11T06:16:52;8.65;;;2.40;;
43337;SDS011;28933;52.492;13.434;2022-07-11T06:19:18;9.48;;;2.35;;
43337;SDS011;28933;52.492;13.434;2022-07-11T06:21:44;11.48;;;2.83;;
43337;SDS011;28933;52.492;13.434;2022-07-11T06:24:09;7.78;;;2.58;;
43337;SDS011;28933;52.492;13.434;2022-07-11T06:26:35;5.65;;;2.30;;
43337;SDS011;28933;52.492;13.434;2022-07-11T06:29:01;5.68;;;2.03;;
43337;SDS011;28933;52.492;13.434;2022-07-11T06:31:27;4.07;;;2.20;;
43337;SDS011;28933;52.492;13.434;2022-07-11T06:33:53;6.43;;;2.38;;
43337;SDS011;28933;52.492;13.434;2022-07-11T06:36:22;4.88;;;1.90;;
43337;SDS011;28933;52.492;13.434;2022-07-11T06:38:49;7.75;;;2.05;;
43337;SDS011;28933;52.492;13.434;2022-07-11T06:41:15;7.53;;;2.92;;
43337;SDS011;28933;52.492;13.434;2022-07-11T06:43:41;6.13;;;2.28;;
43337;SDS011;28933;52.492;13.434;2022-07-11T06:46:06;6.45;;;2.38;;
43337;SDS011;28933;52.492;13.434;2022-07-11T06:48:32;9.23;;;2.80;;
43337;SDS011;28933;52.492;13.434;2022-07-11T06:50:57;7.65;;;2.45;;
43337;SDS011;28933;52.492;13.434;2022-07-11T06:53:23;5.53;;;2.28;;
43337;SDS011;28933;52.492;13.434;2022-07-11T06:55:49;7.65;;;2.08;;
43337;SDS011;28933;52.492;13.434;2022-07-11T06:58:14;7.70;;;2.60;;
43337;SDS011;28933;52.492;13.434;2022-07-11T07:00:57;8.15;;;2.60;;
43337;SDS011;28933;52.492;13.434;2022-07-11T07:03:28;6.82;;;2.55;;
43337;SDS011;28933;52.492;13.434;2022-07-11T07:05:55;8.05;;;2.40;;
43337;SDS011;28933;52.492;13.434;2022-07-11T07:08:25;5.53;;;2.63;;
43337;SDS011;28933;52.492;13.434;2022-07-11T07:10:52;9.75;;;2.22;;
43337;SDS011;28933;52.492;13.434;2022-07-11T07:13:18;5.95;;;2.20;;
43337;SDS011;28933;52.492;13.434;2022-07-11T07:15:45;5.47;;;2.03;;
43337;SDS011;28933;52.492;13.434;2022-07-11T07:18:11;10.13;;;2.42;;
43337;SDS011;28933;52.492;13.434;2022-07-11T07:20:37;7.70;;;2.35;;
43337;SDS011;28933;52.492;13.434;2022-07-11T07:23:03;5.13;;;1.95;;
43337;SDS011;28933;52.492;13.434;2022-07-11T07:25:28;7.55;;;2.20;;
43337;SDS011;28933;52.492;13.434;2022-07-11T07:27:54;8.15;;;2.22;;
43337;SDS011;28933;52.492;13.434;2022-07-11T07:30:20;7.75;;;2.38;;
43337;SDS011;28933;52.492;13.434;2022-07-11T07:32:46;6.70;;;2.72;;
43337;SDS011;28933;52.492;13.434;2022-07-11T07:35:11;5.47;;;2.20;;
43337;SDS011;28933;52.492;13.434;2022-07-11T07:37:37;5.43;;;2.38;;
43337;SDS011;28933;52.492;13.434;2022-07-11T07:40:03;5.60;;;1.85;;
43337;SDS011;28933;52.492;13.434;2022-07-11T07:42:29;7.13;;;2.10;;
43337;SDS011;28933;52.492;13.434;2022-07-11T07:44:54;6.20;;;1.85;;
43337;SDS011;28933;52.492;13.434;2022-07-11T07:47:20;5.35;;;2.35;;
43337;SDS011;28933;52.492;13.434;2022-07-11T07:49:45;7.25;;;2.00;;
43337;SDS011;28933;52.492;13.434;2022-07-11T07:52:11;8.07;;;2.30;;
43337;SDS011;28933;52.492;13.434;2022-07-11T07:54:37;5.60;;;1.98;;
43337;SDS011;28933;52.492;13.434;2022-07-11T07:57:03;11.27;;;2.35;;
43337;SDS011;28933;52.492;13.434;2022-07-11T07:59:28;8.00;;;2.30;;
43337;SDS011;28933;52.492;13.434;2022-07-11T08:01:54;11.65;;;2.42;;
43337;SDS011;28933;52.492;13.434;2022-07-11T08:04:19;6.15;;;2.00;;
43337;SDS011;28933;52.492;13.434;2022-07-11T08:06:45;6.80;;;1.95;;
43337;SDS011;28933;52.492;13.434;2022-07-11T08:09:10;7.25;;;3.28;;
43337;SDS011;28933;52.492;13.434;2022-07-11T08:11:37;7.20;;;1.98;;
43337;SDS011;28933;52.492;13.434;2022-07-11T08:14:03;4.60;;;2.28;;
43337;SDS011;28933;52.492;13.434;2022-07-11T08:16:29;7.90;;;2.40;;
43337;SDS011;28933;52.492;13.434;2022-07-11T08:18:57;5.22;;;2.42;;
43337;SDS011;28933;52.492;13.434;2022-07-11T08:21:29;5.80;;;2.33;;
43337;SDS011;28933;52.492;13.434;2022-07-11T08:23:55;9.90;;;2.35;;
43337;SDS011;28933;52.492;13.434;2022-07-11T08:26:21;9.40;;;2.47;;
43337;SDS011;28933;52.492;13.434;2022-07-11T08:28:47;5.35;;;2.00;;
43337;SDS011;28933;52.492;13.434;2022-07-11T08:31:13;7.47;;;2.22;;
43337;SDS011;28933;52.492;13.434;2022-07-11T08:33:39;5.78;;;2.03;;
43337;SDS011;28933;52.492;13.434;2022-07-11T08:36:05;8.32;;;2.10;;
43337;SDS011;28933;52.492;13.434;2022-07-11T08:38:31;8.52;;;3.13;;
43337;SDS011;28933;52.492;13.434;2022-07-11T08:40:57;8.68;;;2.03;;
43337;SDS011;28933;52.492;13.434;2022-07-11T08:43:25;5.68;;;1.73;;
43337;SDS011;28933;52.492;13.434;2022-07-11T08:45:54;5.88;;;2.30;;
43337;SDS011;28933;52.492;13.434;2022-07-11T08:48:21;6.82;;;2.03;;
43337;SDS011;28933;52.492;13.434;2022-07-11T08:50:48;6.75;;;1.70;;
43337;SDS011;28933;52.492;13.434;2022-07-11T08:53:15;6.50;;;2.00;;
43337;SDS011;28933;52.492;13.434;2022-07-11T08:55:41;6.47;;;1.83;;
43337;SDS011;28933;52.492;13.434;2022-07-11T08:58:07;6.13;;;2.50;;
43337;SDS011;28933;52.492;13.434;2022-07-11T09:00:34;6.82;;;2.15;;
43337;SDS011;28933;52.492;13.434;2022-07-11T09:03:00;6.25;;;2.08;;
43337;SDS011;28933;52.492;13.434;2022-07-11T09:05:28;6.07;;;2.17;;
43337;SDS011;28933;52.492;13.434;2022-07-11T09:07:55;5.90;;;1.77;;
43337;SDS011;28933;52.492;13.434;2022-07-11T09:10:21;5.57;;;2.03;;
43337;SDS011;28933;52.492;13.434;2022-07-11T09:13:03;6.53;;;2.08;;
43337;SDS011;28933;52.492;13.434;2022-07-11T09:17:59;6.72;;;1.95;;
43337;SDS011;28933;52.492;13.434;2022-07-11T09:20:26;5.63;;;1.90;;
43337;SDS011;28933;52.492;13.434;2022-07-11T09:23:20;5.30;;;1.73;;
43337;SDS011;28933;52.492;13.434;2022-07-11T09:26:05;4.68;;;2.47;;
43337;SDS011;28933;52.492;13.434;2022-07-11T09:28:31;10.48;;;2.40;;
43337;SDS011;28933;52.492;13.434;2022-07-11T09:30:56;9.55;;;2.35;;
43337;SDS011;28933;52.492;13.434;2022-07-11T09:33:22;8.38;;;1.80;;
43337;SDS011;28933;52.492;13.434;2022-07-11T09:35:48;4.63;;;1.77;;
43337;SDS011;28933;52.492;13.434;2022-07-11T09:38:15;6.47;;;1.90;;
43337;SDS011;28933;52.492;13.434;2022-07-11T09:40:42;2.95;;;1.60;;
43337;SDS011;28933;52.492;13.434;2022-07-11T09:43:09;5.68;;;1.60;;
43337;SDS011;28933;52.492;13.434;2022-07-11T09:45:35;3.75;;;1.75;;
43337;SDS011;28933;52.492;13.434;2022-07-11T09:48:06;2.83;;;1.33;;
43337;SDS011;28933;52.492;13.434;2022-07-11T09:50:34;4.57;;;1.42;;
43337;SDS011;28933;52.492;13.434;2022-07-11T09:53:03;4.60;;;1.60;;
43337;SDS011;28933;52.492;13.434;2022-07-11T09:55:37;4.82;;;1.77;;
43337;SDS011;28933;52.492;13.434;2022-07-11T09:58:07;3.88;;;1.70;;
43337;SDS011;28933;52.492;13.434;2022-07-11T10:00:34;4.97;;;1.75;;
43337;SDS011;28933;52.492;13.434;2022-07-11T10:03:02;4.85;;;1.50;;
43337;SDS011;28933;52.492;13.434;2022-07-11T10:05:28;5.85;;;1.40;;
43337;SDS011;28933;52.492;13.434;2022-07-11T10:07:54;4.85;;;1.50;;
43337;SDS011;28933;52.492;13.434;2022-07-11T10:10:20;3.17;;;1.48;;
43337;SDS011;28933;52.492;13.434;2022-07-11T10:12:46;3.78;;;1.95;;
43337;SDS011;28933;52.492;13.434;2022-07-11T10:15:14;3.35;;;1.70;;
43337;SDS011;28933;52.492;13.434;2022-07-11T10:23:03;3.35;;;1.35;;
43337;SDS011;28933;52.492;13.434;2022-07-11T10:30:45;3.67;;;1.58;;
43337;SDS011;28933;52.492;13.434;2022-07-11T10:33:13;4.13;;;1.30;;
43337;SDS011;28933;52.492;13.434;2022-07-11T10:35:46;3.70;;;1.40;;
43337;SDS011;28933;52.492;13.434;2022-07-11T10:38:15;4.07;;;1.60;;
43337;SDS011;28933;52.492;13.434;2022-07-11T10:40:57;4.03;;;1.40;;
43337;SDS011;28933;52.492;13.434;2022-07-11T10:43:33;3.35;;;1.20;;
43337;SDS011;28933;52.492;13.434;2022-07-11T10:46:07;4.45;;;1.65;;
43337;SDS011;28933;52.492;13.434;2022-07-11T10:48:51;5.82;;;1.40;;
43337;SDS011;28933;52.492;13.434;2022-07-11T10:59:27;2.67;;;1.63;;
43337;SDS011;28933;52.492;13.434;2022-07-11T11:02:02;4.30;;;1.83;;
43337;SDS011;28933;52.492;13.434;2022-07-11T11:09:52;3.50;;;1.60;;
43337;SDS011;28933;52.492;13.434;2022-07-11T11:12:18;3.03;;;1.15;;
43337;SDS011;28933;52.492;13.434;2022-07-11T11:14:43;3.92;;;1.45;;
43337;SDS011;28933;52.492;13.434;2022-07-11T11:20:04;3.95;;;1.25;;
43337;SDS011;28933;52.492;13.434;2022-07-11T11:22:30;3.72;;;1.27;;
43337;SDS011;28933;52.492;13.434;2022-07-11T11:24:56;5.78;;;1.13;;
43337;SDS011;28933;52.492;13.434;2022-07-11T11:27:25;1.88;;;1.00;;
43337;SDS011;28933;52.492;13.434;2022-07-11T11:29:52;2.45;;;1.10;;
43337;SDS011;28933;52.492;13.434;2022-07-11T11:32:20;1.65;;;1.15;;
43337;SDS011;28933;52.492;13.434;2022-07-11T11:34:46;4.70;;;1.23;;
43337;SDS011;28933;52.492;13.434;2022-07-11T11:37:12;2.13;;;1.10;;
43337;SDS011;28933;52.492;13.434;2022-07-11T11:39:41;3.08;;;1.45;;
43337;SDS011;28933;52.492;13.434;2022-07-11T11:42:08;2.72;;;1.27;;
43337;SDS011;28933;52.492;13.434;2022-07-11T11:44:46;2.85;;;1.33;;
43337;SDS011;28933;52.492;13.434;2022-07-11T11:47:16;3.33;;;1.23;;
43337;SDS011;28933;52.492;13.434;2022-07-11T11:49:42;1.60;;;1.10;;
43337;SDS011;28933;52.492;13.434;2022-07-11T11:52:09;2.90;;;1.00;;
43337;SDS011;28933;52.492;13.434;2022-07-11T11:54:35;2.50;;;1.13;;
43337;SDS011;28933;52.492;13.434;2022-07-11T11:57:05;4.65;;;1.60;;
43337;SDS011;28933;52.492;13.434;2022-07-11T11:59:36;1.92;;;1.13;;
43337;SDS011;28933;52.492;13.434;2022-07-11T12:02:02;3.25;;;1.10;;
43337;SDS011;28933;52.492;13.434;2022-07-11T12:04:32;3.53;;;1.05;;
43337;SDS011;28933;52.492;13.434;2022-07-11T12:06:59;2.67;;;1.23;;
43337;SDS011;28933;52.492;13.434;2022-07-11T12:09:26;2.90;;;1.13;;
43337;SDS011;28933;52.492;13.434;2022-07-11T12:12:11;3.42;;;1.27;;
43337;SDS011;28933;52.492;13.434;2022-07-11T12:17:25;4.60;;;1.20;;
43337;SDS011;28933;52.492;13.434;2022-07-11T12:19:52;4.53;;;1.20;;
43337;SDS011;28933;52.492;13.434;2022-07-11T12:22:17;2.67;;;1.20;;
43337;SDS011;28933;52.492;13.434;2022-07-11T12:24:48;2.65;;;0.95;;
43337;SDS011;28933;52.492;13.434;2022-07-11T12:27:22;2.20;;;1.42;;
43337;SDS011;28933;52.492;13.434;2022-07-11T12:29:49;4.75;;;1.70;;
43337;SDS011;28933;52.492;13.434;2022-07-11T12:32:16;2.85;;;1.52;;
43337;SDS011;28933;52.492;13.434;2022-07-11T12:34:44;1.55;;;1.10;;
43337;SDS011;28933;52.492;13.434;2022-07-11T12:37:12;3.53;;;1.30;;
43337;SDS011;28933;52.492;13.434;2022-07-11T12:39:40;3.78;;;0.88;;
43337;SDS011;28933;52.492;13.434;2022-07-11T12:42:29;2.80;;;1.10;;
43337;SDS011;28933;52.492;13.434;2022-07-11T12:47:28;2.05;;;1.25;;
43337;SDS011;28933;52.492;13.434;2022-07-11T12:49:54;2.85;;;1.40;;
43337;SDS011;28933;52.492;13.434;2022-07-11T12:52:22;2.47;;;1.20;;
43337;SDS011;28933;52.492;13.434;2022-07-11T12:54:48;2.53;;;0.95;;
43337;SDS011;28933;52.492;13.434;2022-07-11T12:57:16;3.03;;;1.30;;
43337;SDS011;28933;52.492;13.434;2022-07-11T12:59:42;2.85;;;1.50;;
43337;SDS011;28933;52.492;13.434;2022-07-11T13:02:09;2.80;;;1.27;;
43337;SDS011;28933;52.492;13.434;2022-07-11T13:04:45;3.63;;;1.42;;
43337;SDS011;28933;52.492;13.434;2022-07-11T13:07:29;2.50;;;1.10;;
43337;SDS011;28933;52.492;13.434;2022-07-11T13:10:18;1.80;;;1.10;;
43337;SDS011;28933;52.492;13.434;2022-07-11T13:12:49;4.00;;;1.98;;
43337;SDS011;28933;52.492;13.434;2022-07-11T13:15:17;1.50;;;0.80;;
43337;SDS011;28933;52.492;13.434;2022-07-11T13:17:48;3.20;;;1.35;;
43337;SDS011;28933;52.492;13.434;2022-07-11T13:20:25;2.80;;;1.33;;
43337;SDS011;28933;52.492;13.434;2022-07-11T13:22:52;3.65;;;1.30;;
43337;SDS011;28933;52.492;13.434;2022-07-11T13:25:19;2.75;;;1.40;;
43337;SDS011;28933;52.492;13.434;2022-07-11T13:27:46;2.22;;;1.60;;
43337;SDS011;28933;52.492;13.434;2022-07-11T13:30:16;3.75;;;1.08;;
43337;SDS011;28933;52.492;13.434;2022-07-11T13:32:45;2.25;;;1.00;;
43337;SDS011;28933;52.492;13.434;2022-07-11T13:35:13;2.17;;;1.48;;
43337;SDS011;28933;52.492;13.434;2022-07-11T13:37:39;3.60;;;1.23;;
43337;SDS011;28933;52.492;13.434;2022-07-11T13:40:09;3.78;;;1.50;;
43337;SDS011;28933;52.492;13.434;2022-07-11T13:42:36;1.85;;;1.23;;
43337;SDS011;28933;52.492;13.434;2022-07-11T13:45:03;3.38;;;1.00;;
43337;SDS011;28933;52.492;13.434;2022-07-11T13:47:30;4.30;;;1.50;;
43337;SDS011;28933;52.492;13.434;2022-07-11T13:49:57;2.15;;;1.20;;
43337;SDS011;28933;52.492;13.434;2022-07-11T13:52:23;2.58;;;1.23;;
43337;SDS011;28933;52.492;13.434;2022-07-11T13:54:48;1.80;;;1.38;;
43337;SDS011;28933;52.492;13.434;2022-07-11T13:57:14;4.97;;;1.38;;
43337;SDS011;28933;52.492;13.434;2022-07-11T13:59:39;6.28;;;1.73;;
43337;SDS011;28933;52.492;13.434;2022-07-11T14:02:08;7.60;;;1.63;;
43337;SDS011;28933;52.492;13.434;2022-07-11T14:04:34;4.57;;;1.20;;
43337;SDS011;28933;52.492;13.434;2022-07-11T14:06:59;2.03;;;1.08;;
43337;SDS011;28933;52.492;13.434;2022-07-11T14:09:25;1.55;;;1.20;;
43337;SDS011;28933;52.492;13.434;2022-07-11T14:11:52;2.72;;;1.40;;
43337;SDS011;28933;52.492;13.434;2022-07-11T14:14:18;2.80;;;1.27;;
43337;SDS011;28933;52.492;13.434;2022-07-11T14:16:44;3.75;;;1.10;;
43337;SDS011;28933;52.492;13.434;2022-07-11T14:19:09;2.30;;;1.17;;
43337;SDS011;28933;52.492;13.434;2022-07-11T14:21:36;2.95;;;1.42;;
43337;SDS011;28933;52.492;13.434;2022-07-11T14:24:02;3.95;;;1.30;;
43337;SDS011;28933;52.492;13.434;2022-07-11T14:26:28;2.95;;;1.33;;
43337;SDS011;28933;52.492;13.434;2022-07-11T14:28:54;3.13;;;1.13;;
43337;SDS011;28933;52.492;13.434;2022-07-11T14:31:20;2.10;;;1.15;;
43337;SDS011;28933;52.492;13.434;2022-07-11T14:33:48;3.58;;;1.20;;
43337;SDS011;28933;52.492;13.434;2022-07-11T14:36:14;3.42;;;1.50;;
43337;SDS011;28933;52.492;13.434;2022-07-11T14:38:40;1.73;;;0.98;;
43337;SDS011;28933;52.492;13.434;2022-07-11T14:41:05;2.80;;;1.10;;
43337;SDS011;28933;52.492;13.434;2022-07-11T14:43:31;2.45;;;1.33;;
43337;SDS011;28933;52.492;13.434;2022-07-11T14:45:57;2.75;;;1.10;;
43337;SDS011;28933;52.492;13.434;2022-07-11T14:48:22;2.00;;;0.98;;
43337;SDS011;28933;52.492;13.434;2022-07-11T14:50:48;2.20;;;1.20;;
43337;SDS011;28933;52.492;13.434;2022-07-11T14:53:18;4.45;;;1.58;;
43337;SDS011;28933;52.492;13.434;2022-07-11T14:55:43;1.85;;;1.00;;
43337;SDS011;28933;52.492;13.434;2022-07-11T14:58:09;2.85;;;1.10;;
43337;SDS011;28933;52.492;13.434;2022-07-11T15:00:34;2.58;;;1.20;;
43337;SDS011;28933;52.492;13.434;2022-07-11T15:03:00;4.45;;;1.23;;
43337;SDS011;28933;52.492;13.434;2022-07-11T15:05:44;2.72;;;1.02;;
43337;SDS011;28933;52.492;13.434;2022-07-11T15:08:10;2.05;;;1.00;;